Time;durP1;ratioP1;P1;durP2;ratioP2;P2;SDS_P1;SDS_P2;PMS_P1;PMS_P2;Temp;Humidity;BMP_temperature;BMP_pressure;BME280_temperature;BME280_humidity;BME280_pressure;Samples;Min_cycle;Max_cycle;Signal;HPM_P1;HPM_P2
2023/04/22 00:00:50;;;;;;;16.80;7.40;;;;;;;12.00;58.86;99915.76;108306;1257;72376;-93
2023/04/22 00:03:21;;;;;;;12.80;7.30;;;;;;;11.97;58.93;99913.90;109169;1258;62017;-89
2023/04/22 00:05:50;;;;;;;14.50;7.70;;;;;;;11.96;58.88;99914.13;109108;1257;59571;-92
2023/04/22 00:08:20;;;;;;;15.60;7.50;;;;;;;11.99;58.93;99907.37;107872;1257;74791;-94
2023/04/22 00:10:51;;;;;;;20.30;8.10;;;;;;;12.02;58.84;99907.55;107745;1259;73964;-94
2023/04/22 00:13:20;;;;;;;17.00;7.40;;;;;;;11.99;58.83;99906.67;108836;1257;72445;-87
2023/04/22 00:15:48;;;;;;;20.80;7.60;;;;;;;11.94;58.89;99906.71;108703;1257;61053;-93
2023/04/22 00:18:17;;;;;;;15.20;6.80;;;;;;;11.91;58.85;99905.72;108584;1258;60429;-93
2023/04/22 00:20:45;;;;;;;16.40;7.40;;;;;;;11.87;59.03;99900.69;108335;1256;74056;-93
2023/04/22 00:23:14;;;;;;;14.20;7.00;;;;;;;11.83;59.20;99903.20;108121;1257;72417;-91
2023/04/22 00:25:42;;;;;;;18.40;7.70;;;;;;;11.77;59.36;99905.39;107950;1257;72368;-91
2023/04/22 00:28:11;;;;;;;17.30;7.30;;;;;;;11.67;59.57;99908.77;107785;1257;61961;-91
2023/04/22 00:30:39;;;;;;;15.40;7.60;;;;;;;11.61;59.64;99905.62;107945;1257;62200;-92
2023/04/22 00:33:08;;;;;;;14.00;7.30;;;;;;;11.59;59.86;99906.50;108210;1257;71807;-92
2023/04/22 00:35:38;;;;;;;15.40;7.50;;;;;;;11.56;59.97;99903.58;108679;1257;70709;-93
2023/04/22 00:38:09;;;;;;;15.80;6.90;;;;;;;11.54;60.05;99906.58;108205;1257;73956;-92
2023/04/22 00:40:40;;;;;;;20.70;7.50;;;;;;;11.50;60.10;99902.13;107901;1257;62929;-93
2023/04/22 00:43:08;;;;;;;13.00;7.10;;;;;;;11.49;60.10;99901.96;107887;1257;60285;-92
2023/04/22 00:45:36;;;;;;;16.90;8.10;;;;;;;11.46;60.11;99907.39;107884;1256;72555;-94
2023/04/22 00:48:05;;;;;;;16.10;7.50;;;;;;;11.43;60.16;99908.31;107797;1257;72094;-91
2023/04/22 00:50:34;;;;;;;14.90;7.10;;;;;;;11.39;60.24;99904.23;108925;1256;73846;-84
2023/04/22 00:53:03;;;;;;;15.00;7.20;;;;;;;11.38;60.36;99900.06;109216;1258;60614;-85
2023/04/22 00:55:32;;;;;;;15.00;8.50;;;;;;;11.29;60.52;99897.08;109269;1257;58592;-80
2023/04/22 00:58:02;;;;;;;15.00;7.90;;;;;;;11.22;60.65;99901.34;109091;1257;73687;-92
2023/04/22 01:00:30;;;;;;;16.80;7.80;;;;;;;11.22;60.65;99907.87;108868;1257;72485;-92
2023/04/22 01:02:59;;;;;;;19.60;8.10;;;;;;;11.26;60.63;99905.55;108777;1257;71883;-92
2023/04/22 01:05:31;;;;;;;13.00;7.80;;;;;;;11.25;60.75;99915.70;108755;1256;60847;-92
2023/04/22 01:07:59;;;;;;;16.30;7.50;;;;;;;11.13;61.12;99916.15;109146;1257;60329;-92
2023/04/22 01:10:28;;;;;;;16.50;7.90;;;;;;;11.05;61.32;99912.73;107834;1257;71788;-91
2023/04/22 01:12:57;;;;;;;15.90;8.40;;;;;;;11.08;61.35;99915.65;107862;1257;74126;-93
2023/04/22 01:15:27;;;;;;;13.90;8.00;;;;;;;11.12;61.28;99915.25;108151;1257;72310;-94
2023/04/22 01:17:56;;;;;;;14.80;7.70;;;;;;;11.14;61.20;99918.25;107844;1257;61902;-92
2023/04/22 01:20:27;;;;;;;16.80;8.60;;;;;;;11.14;61.14;99917.11;107883;1257;61088;-93
2023/04/22 01:22:56;;;;;;;17.80;8.00;;;;;;;11.13;61.06;99920.55;107908;1257;74091;-92
2023/04/22 01:25:25;;;;;;;17.40;8.20;;;;;;;11.02;61.24;99923.86;107884;1257;73757;-92
2023/04/22 01:27:55;;;;;;;16.10;8.50;;;;;;;10.98;61.26;99919.81;107878;1257;74932;-91
2023/04/22 01:30:23;;;;;;;17.90;8.40;;;;;;;10.95;61.39;99920.09;107773;1257;62290;-93
2023/04/22 01:32:52;;;;;;;18.50;7.80;;;;;;;10.93;61.44;99918.17;107663;1264;60675;-91
2023/04/22 01:35:21;;;;;;;17.00;8.30;;;;;;;10.90;61.43;99919.27;107776;1257;74851;-92
2023/04/22 01:37:49;;;;;;;18.20;9.10;;;;;;;10.87;61.43;99919.54;107701;1256;73296;-92
2023/04/22 01:40:18;;;;;;;17.00;8.80;;;;;;;10.83;61.51;99920.41;107855;1257;73002;-92
2023/04/22 01:42:47;;;;;;;18.20;8.90;;;;;;;10.88;61.30;99920.77;107866;1257;61391;-92
2023/04/22 01:45:16;;;;;;;16.30;8.90;;;;;;;10.85;61.24;99923.78;107910;1257;61103;-92
2023/04/22 01:47:45;;;;;;;19.30;8.80;;;;;;;10.84;61.21;99920.95;107712;1263;72795;-93
2023/04/22 01:50:13;;;;;;;15.40;8.90;;;;;;;10.81;61.16;99918.81;107908;1257;71637;-92
2023/04/22 01:52:42;;;;;;;14.30;9.00;;;;;;;10.79;61.08;99922.36;107869;1257;72747;-92
2023/04/22 01:55:10;;;;;;;16.30;9.10;;;;;;;10.76;61.09;99922.05;107882;1257;61374;-91
2023/04/22 01:57:39;;;;;;;16.30;8.60;;;;;;;10.64;61.29;99924.66;107858;1257;60339;-91
2023/04/22 02:00:08;;;;;;;17.80;8.90;;;;;;;10.56;61.38;99923.77;107652;1257;74105;-91
2023/04/22 02:02:40;;;;;;;21.80;10.10;;;;;;;10.50;61.49;99927.63;107736;1257;73212;-91
2023/04/22 02:05:08;;;;;;;16.30;9.20;;;;;;;10.45;61.58;99933.52;107692;1257;73697;-92
2023/04/22 02:07:38;;;;;;;15.40;9.20;;;;;;;10.38;61.70;99939.09;107729;1257;63347;-87
2023/04/22 02:10:08;;;;;;;14.50;8.80;;;;;;;10.33;61.66;99942.04;107881;1257;60583;-91
2023/04/22 02:12:37;;;;;;;16.30;8.80;;;;;;;10.29;61.82;99941.15;107873;1257;74460;-92
2023/04/22 02:15:07;;;;;;;14.50;9.50;;;;;;;10.25;61.81;99941.50;107843;1257;72963;-93
2023/04/22 02:17:37;;;;;;;16.00;8.50;;;;;;;10.20;61.79;99943.47;107783;1258;72138;-92
2023/04/22 02:20:06;;;;;;;17.00;9.40;;;;;;;10.17;61.79;99943.59;107854;1257;60659;-94
2023/04/22 02:22:36;;;;;;;16.40;9.40;;;;;;;10.12;61.92;99939.27;108663;1257;61887;-92
2023/04/22 02:25:05;;;;;;;17.30;9.00;;;;;;;10.08;61.91;99938.31;109174;1257;72686;-91
2023/04/22 02:27:34;;;;;;;19.50;9.60;;;;;;;10.10;61.87;99938.52;109187;1257;72575;-91
2023/04/22 02:30:02;;;;;;;18.40;9.50;;;;;;;10.01;62.04;99934.31;108336;1258;70920;-93
2023/04/22 02:32:32;;;;;;;17.50;9.90;;;;;;;9.95;62.22;99935.45;107908;1258;61670;-91
2023/04/22 02:35:02;;;;;;;16.40;9.40;;;;;;;9.94;62.42;99933.46;107894;1257;60293;-90
2023/04/22 02:37:30;;;;;;;14.30;9.50;;;;;;;9.96;62.46;99936.08;107938;1257;73709;-91
2023/04/22 02:39:59;;;;;;;16.90;10.20;;;;;;;9.95;62.52;99940.09;107905;1258;73796;-93
2023/04/22 02:42:28;;;;;;;17.70;9.70;;;;;;;9.93;62.57;99938.69;107895;1257;73642;-92
2023/04/22 02:44:57;;;;;;;18.10;11.10;;;;;;;9.91;62.68;99943.23;107881;1257;62965;-92
2023/04/22 02:47:26;;;;;;;16.80;10.50;;;;;;;9.85;62.66;99944.19;107762;1257;60447;-91
2023/04/22 02:49:55;;;;;;;16.60;10.20;;;;;;;9.78;62.92;99942.86;107696;1257;71601;-91
2023/04/22 02:52:23;;;;;;;21.90;11.40;;;;;;;9.75;62.99;99942.43;107886;1257;73978;-91
2023/04/22 02:54:51;;;;;;;16.60;10.00;;;;;;;9.74;63.09;99945.59;107886;1260;73601;-92
2023/04/22 02:57:21;;;;;;;17.80;10.40;;;;;;;9.71;63.26;99944.02;107899;1257;62006;-90
2023/04/22 02:59:50;;;;;;;17.60;10.50;;;;;;;9.71;63.24;99946.98;107898;1257;60776;-90
2023/04/22 03:02:20;;;;;;;21.50;12.20;;;;;;;9.71;63.38;99949.68;107913;1257;74781;-93
2023/04/22 03:05:17;;;;;;;17.60;10.30;;;;;;;9.69;63.49;99947.23;107908;1257;74257;-91
2023/04/22 03:07:48;;;;;;;20.60;11.30;;;;;;;9.68;63.52;99949.15;107705;1257;73399;-89
2023/04/22 03:10:17;;;;;;;20.00;11.40;;;;;;;9.67;63.70;99950.67;107904;1257;62580;-90
2023/04/22 03:12:47;;;;;;;17.80;10.00;;;;;;;9.71;63.75;99948.83;107083;1257;1099147;-91
2023/04/22 03:15:16;;;;;;;21.80;10.10;;;;;;;9.79;63.51;99954.23;107768;1257;75115;-90
2023/04/22 03:17:52;;;;;;;15.50;10.30;;;;;;;9.82;63.49;99957.16;107932;1257;72415;-90
2023/04/22 03:20:23;;;;;;;18.70;10.20;;;;;;;9.76;63.49;99962.12;107736;1257;73969;-91
2023/04/22 03:22:56;;;;;;;18.60;10.20;;;;;;;9.71;63.67;99964.14;107790;1257;61512;-91
2023/04/22 03:25:28;;;;;;;13.30;9.10;;;;;;;9.74;63.67;99967.60;107708;1257;60442;-90
2023/04/22 03:27:56;;;;;;;16.90;10.70;;;;;;;9.75;63.65;99969.32;107770;1257;75157;-94
2023/04/22 03:30:25;;;;;;;17.30;10.70;;;;;;;9.77;63.57;99974.54;107756;1261;72945;-93
2023/04/22 03:32:56;;;;;;;14.40;10.00;;;;;;;9.84;63.58;99974.76;107722;1257;73578;-94
2023/04/22 03:35:48;;;;;;;17.20;10.40;;;;;;;9.94;63.18;99974.23;107864;1257;63778;-91
2023/04/22 03:38:19;;;;;;;15.80;10.20;;;;;;;9.97;63.09;99977.75;107753;1257;61142;-94
2023/04/22 03:40:48;;;;;;;15.80;9.80;;;;;;;9.98;62.86;99978.17;107656;1257;74784;-90
2023/04/22 03:43:26;;;;;;;15.60;9.80;;;;;;;9.96;62.90;99979.93;107746;1257;72502;-91
2023/04/22 03:46:02;;;;;;;16.30;9.80;;;;;;;10.01;62.95;99983.63;107913;1257;70738;-91
2023/04/22 03:48:34;;;;;;;;;;;;;;;10.07;62.75;99983.46;107913;1257;63183;-91
2023/04/22 03:51:08;;;;;;;15.60;9.60;;;;;;;10.22;62.53;99988.95;107922;1257;60350;-92
2023/04/22 03:53:37;;;;;;;14.40;9.60;;;;;;;10.32;62.22;99984.48;108438;1257;74001;-94
2023/04/22 03:56:11;;;;;;;13.40;9.00;;;;;;;10.41;62.05;99991.30;109020;1257;72765;-90
2023/04/22 03:58:41;;;;;;;15.40;9.10;;;;;;;10.48;61.62;99992.14;108967;1257;72762;-94
2023/04/22 04:01:10;;;;;;;17.20;9.10;;;;;;;10.56;61.44;99999.19;108417;1264;62001;-94
2023/04/22 04:03:40;;;;;;;15.80;8.90;;;;;;;10.64;61.13;100001.63;107822;1257;60400;-93
2023/04/22 04:06:12;;;;;;;12.20;9.00;;;;;;;10.75;60.82;100005.18;107824;1259;73782;-93
2023/04/22 04:08:49;;;;;;;13.20;9.40;;;;;;;10.87;60.63;100010.98;107848;1257;72783;-94
2023/04/22 04:11:20;;;;;;;13.60;9.60;;;;;;;10.97;60.25;100015.16;108135;1257;72704;-94
2023/04/22 04:13:53;;;;;;;13.90;9.10;;;;;;;11.08;59.71;100019.17;108388;1257;60769;-94
2023/04/22 04:16:33;;;;;;;13.90;9.30;;;;;;;11.17;59.07;100019.58;107917;1257;61645;-93
2023/04/22 04:19:12;;;;;;;12.60;8.90;;;;;;;11.25;58.63;100022.86;108051;1257;74747;-92
2023/04/22 04:21:44;;;;;;;15.60;9.10;;;;;;;11.37;58.20;100017.77;107924;1257;74154;-93
2023/04/22 04:24:16;;;;;;;13.90;8.90;;;;;;;11.49;57.96;100018.95;107816;1257;72737;-93
2023/04/22 04:26:50;;;;;;;16.10;9.70;;;;;;;11.63;57.72;100019.08;107844;1257;62163;-94
2023/04/22 04:29:30;;;;;;;13.50;9.30;;;;;;;11.79;57.48;100020.11;107696;1257;60309;-94
2023/04/22 04:32:09;;;;;;;14.30;9.90;;;;;;;11.97;57.11;100021.19;107767;1257;75086;-95
2023/04/22 04:34:39;;;;;;;16.40;10.10;;;;;;;12.11;56.42;100020.27;107688;1257;72346;-95
2023/04/22 04:37:10;;;;;;;13.10;9.20;;;;;;;12.23;55.96;100020.08;107831;1257;72668;-94
2023/04/22 04:40:06;;;;;;;13.50;9.70;;;;;;;12.34;55.31;100018.85;107910;1257;62951;-95
2023/04/22 04:42:43;;;;;;;16.00;9.90;;;;;;;12.40;54.76;100020.93;107819;1257;61494;-93
2023/04/22 04:45:18;;;;;;;13.10;9.50;;;;;;;12.50;54.34;100019.98;107782;1258;74181;-93
2023/04/22 04:47:51;;;;;;;;;;;;;;;12.59;54.05;100022.95;107943;1260;73439;-94
2023/04/22 04:50:35;;;;;;;15.00;9.70;;;;;;;12.67;53.43;100026.89;107806;1257;73586;-92
2023/04/22 04:53:06;;;;;;;13.30;9.40;;;;;;;12.73;53.28;100016.59;107702;1256;61667;-93
2023/04/22 04:55:44;;;;;;;14.00;9.20;;;;;;;12.84;53.24;100024.84;107820;1265;60673;-95
2023/04/22 04:58:43;;;;;;;13.00;9.30;;;;;;;12.94;52.74;100022.54;107857;1257;73532;-94
2023/04/22 05:01:21;;;;;;;14.70;9.70;;;;;;;13.02;52.49;100031.77;108078;1257;70808;-93
2023/04/22 05:03:50;;;;;;;12.90;9.90;;;;;;;13.06;52.08;100027.11;108099;1257;73663;-95
2023/04/22 05:06:33;;;;;;;14.00;9.60;;;;;;;13.14;52.31;100028.77;107847;1257;60229;-93
2023/04/22 05:09:06;;;;;;;14.30;10.00;;;;;;;13.22;52.25;100024.89;107850;1257;60084;-94
2023/04/22 05:11:41;;;;;;;12.40;9.10;;;;;;;13.31;52.31;100026.79;107994;1257;74544;-94
2023/04/22 05:16:54;;;;;;;10.40;7.60;;;;;;;13.54;50.07;100028.10;108319;1258;72016;-92
2023/04/22 05:19:34;;;;;;;10.30;7.40;;;;;;;13.63;48.60;100028.40;108173;1257;60034;-94
2023/04/22 05:22:44;;;;;;;10.30;7.40;;;;;;;13.78;48.23;100029.20;108314;1257;60442;-96
2023/04/22 05:25:44;;;;;;;12.60;8.80;;;;;;;13.92;46.82;100027.55;109078;1257;72312;-95
2023/04/22 05:28:15;;;;;;;16.30;8.50;;;;;;;14.00;46.16;100030.16;109082;1257;71673;-92
2023/04/22 05:30:50;;;;;;;11.00;7.90;;;;;;;14.10;45.52;100037.48;109020;1257;72611;-95
2023/04/22 05:33:36;;;;;;;12.30;9.10;;;;;;;14.18;45.07;100039.39;108159;1257;60441;-96
2023/04/22 05:37:09;;;;;;;10.80;7.70;;;;;;;14.26;44.74;100035.86;108436;1257;61322;-95
2023/04/22 05:39:43;;;;;;;9.80;8.20;;;;;;;14.33;44.13;100043.66;108417;1257;74765;-95
2023/04/22 05:42:15;;;;;;;10.40;8.30;;;;;;;14.35;43.72;100045.25;108237;1257;72805;-93
2023/04/22 05:44:45;;;;;;;10.30;8.10;;;;;;;14.33;43.52;100044.58;108602;1256;72407;-95
2023/04/22 05:47:18;;;;;;;13.20;9.40;;;;;;;14.38;43.59;100039.38;108597;1257;61548;-93
2023/04/22 05:49:51;;;;;;;;;;;;;;;14.41;43.48;100038.69;108345;1257;61031;-94
2023/04/22 05:52:48;;;;;;;12.90;8.40;;;;;;;14.47;43.32;100038.20;108350;1259;72760;-96
2023/04/22 05:55:20;;;;;;;13.60;9.00;;;;;;;14.58;42.95;100042.55;108325;1257;73848;-95
2023/04/22 05:58:02;;;;;;;11.40;8.80;;;;;;;14.68;42.62;100045.98;108416;1257;72800;-96
2023/04/22 06:16:21;;;;;;;14.10;9.70;;;;;;;15.42;42.38;100042.22;108859;1261;71399;-95
2023/04/22 06:20:43;;;;;;;17.00;11.60;;;;;;;15.58;42.43;100046.41;108762;1260;72856;-83
2023/04/22 06:25:08;;;;;;;12.70;9.70;;;;;;;15.73;42.34;100045.51;108404;1270;60954;-87
2023/04/22 06:36:23;;;;;;;13.10;9.60;;;;;;;16.16;41.27;100044.03;109188;1257;71725;-95
2023/04/22 06:44:18;;;;;;;13.60;9.50;;;;;;;16.50;39.45;100050.13;108560;1267;59845;-95
2023/04/22 06:47:33;;;;;;;12.50;9.00;;;;;;;16.59;39.41;100054.88;108685;1260;60030;-82
2023/04/22 06:51:03;;;;;;;11.70;8.90;;;;;;;16.71;39.19;100052.26;109071;1260;72406;-88
2023/04/22 06:54:39;;;;;;;11.60;9.80;;;;;;;16.88;38.94;100056.19;108995;1260;71248;-80
2023/04/22 07:02:40;;;;;;;12.80;8.70;;;;;;;17.28;37.78;100056.27;109176;1260;59083;-77
2023/04/22 07:13:27;;;;;;;12.60;8.40;;;;;;;17.95;35.78;100061.50;108952;1257;73459;-96
2023/04/22 07:15:59;;;;;;;9.70;7.80;;;;;;;18.04;36.18;100058.27;109383;1256;71965;-85
2023/04/22 07:18:43;;;;;;;13.30;9.20;;;;;;;18.19;36.07;100060.33;108963;1257;59436;-94
2023/04/22 07:23:45;;;;;;;9.60;7.90;;;;;;;18.38;35.38;100066.45;108979;1260;59324;-84
2023/04/22 07:33:59;;;;;;;11.30;7.80;;;;;;;18.63;34.85;100073.08;109401;1260;71383;-91
2023/04/22 07:36:33;;;;;;;13.30;8.50;;;;;;;18.73;34.76;100075.39;109497;1256;59630;-95
2023/04/22 07:39:03;;;;;;;13.00;8.60;;;;;;;18.83;34.43;100077.95;109448;1256;60402;-94
2023/04/22 07:41:32;;;;;;;12.50;8.00;;;;;;;18.89;34.39;100081.29;108893;1257;73818;-96
2023/04/22 07:44:37;;;;;;;14.10;9.10;;;;;;;18.87;34.54;100087.31;109337;1257;71284;-94
2023/04/22 07:47:09;;;;;;;13.20;8.90;;;;;;;18.87;34.60;100088.88;108842;1256;71563;-93
2023/04/22 07:49:39;;;;;;;12.40;9.50;;;;;;;18.88;34.17;100087.76;109176;1256;60362;-88
2023/04/22 07:52:26;;;;;;;12.70;9.10;;;;;;;18.94;34.90;100092.58;109177;1257;60193;-95
2023/04/22 07:54:58;;;;;;;13.60;9.10;;;;;;;18.97;34.90;100094.79;109121;1256;72991;-92
2023/04/22 07:57:45;;;;;;;11.70;7.70;;;;;;;18.99;34.96;100094.09;108676;1257;73969;-94
2023/04/22 08:00:16;;;;;;;13.60;8.60;;;;;;;19.02;35.27;100092.02;108925;1260;72617;-88
2023/04/22 08:03:05;;;;;;;10.50;8.00;;;;;;;19.06;35.48;100094.20;109224;1257;60337;-94
2023/04/22 08:05:48;;;;;;;11.60;8.20;;;;;;;19.11;35.55;100098.82;108631;1257;61316;-94
2023/04/22 08:08:20;;;;;;;10.80;8.10;;;;;;;19.24;35.42;100096.15;109269;1256;73936;-93
2023/04/22 10:38:09;;;;;;;7.50;5.50;;;;;;;20.27;27.80;100096.91;107449;1280;613303;-88
2023/04/22 10:40:57;;;;;;;7.20;5.30;;;;;;;21.26;26.44;100100.70;107984;1260;1213477;-94
2023/04/22 10:43:46;;;;;;;9.40;5.70;;;;;;;21.43;26.60;100095.84;109139;1260;59437;-85
2023/04/22 10:46:33;;;;;;;7.90;5.10;;;;;;;21.53;26.13;100092.44;109101;1260;72021;-86
2023/04/22 10:49:20;;;;;;;7.80;5.80;;;;;;;21.79;25.94;100090.88;109087;1260;73311;-86
2023/04/22 10:52:32;;;;;;;7.70;5.50;;;;;;;21.88;25.15;100098.44;108936;1260;73216;-90
2023/04/22 10:55:01;;;;;;;9.60;5.90;;;;;;;21.72;25.32;100098.27;108713;1260;61130;-95
2023/04/22 10:59:29;;;;;;;5.90;4.90;;;;;;;21.47;25.15;100103.09;108710;1267;59169;-96
2023/04/22 11:20:37;;;;;;;7.30;4.40;;;;;;;21.24;23.47;100115.25;108981;1263;59731;-81
2023/04/22 11:29:15;;;;;;;9.30;4.70;;;;;;;21.73;23.13;100112.44;108787;1269;72706;-78
2023/04/22 11:33:01;;;;;;;7.90;4.60;;;;;;;21.73;23.01;100111.88;108602;1269;72587;-78
2023/04/22 11:40:17;;;;;;;8.50;4.40;;;;;;;21.59;22.46;100118.38;108723;1270;59369;-81
2023/04/22 11:43:03;;;;;;;6.10;4.20;;;;;;;21.50;22.78;100121.54;109067;1261;72235;-79
2023/04/22 11:45:33;;;;;;;6.90;4.30;;;;;;;21.41;22.28;100122.00;109035;1263;72350;-79
2023/04/22 11:48:26;;;;;;;6.60;4.50;;;;;;;21.26;22.21;100126.12;108939;1265;71192;-94
2023/04/22 11:51:13;;;;;;;7.00;4.50;;;;;;;21.16;21.97;100133.27;108750;1261;60375;-79
2023/04/22 11:53:49;;;;;;;6.80;3.70;;;;;;;21.10;22.18;100131.88;108977;1262;60513;-83
2023/04/22 11:56:16;;;;;;;7.70;4.00;;;;;;;21.12;22.04;100131.08;109368;1257;73032;-78
2023/04/22 12:26:27;;;;;;;6.60;4.90;;;;;;;21.86;21.65;100122.44;108914;1259;71665;-79
2023/04/22 12:39:51;;;;;;;5.50;3.90;;;;;;;22.41;21.30;100117.14;108703;1264;72914;-94
2023/04/22 12:42:18;;;;;;;6.10;4.00;;;;;;;22.48;21.19;100119.13;109016;1260;72629;-94
2023/04/22 12:46:08;;;;;;;6.50;4.90;;;;;;;22.56;21.27;100119.46;109001;1259;71271;-94
2023/04/22 12:49:13;;;;;;;7.10;4.60;;;;;;;22.61;21.25;100121.09;108875;1260;58810;-91
2023/04/22 12:51:40;;;;;;;8.40;4.50;;;;;;;22.63;20.75;100122.86;108867;1260;60605;-93
2023/04/22 13:37:45;;;;;;;6.50;4.50;;;;;;;22.20;21.75;100127.29;106657;1279;71744;31
2023/04/22 13:40:14;;;;;;;6.70;4.30;;;;;;;22.31;21.40;100127.02;106819;1286;73054;-79
2023/04/22 13:42:43;;;;;;;5.90;4.40;;;;;;;22.50;21.12;100127.01;106532;1286;72596;-92
2023/04/22 13:45:11;;;;;;;4.90;3.50;;;;;;;22.71;20.95;100125.30;106751;1286;60391;-84
2023/04/22 13:47:42;;;;;;;6.20;3.60;;;;;;;22.77;20.66;100125.29;106603;1285;59223;-81
2023/04/22 13:50:10;;;;;;;6.80;3.70;;;;;;;22.65;20.64;100129.11;106827;1285;72331;-80
2023/04/22 13:52:47;;;;;;;5.50;4.00;;;;;;;22.58;20.93;100127.45;106754;1285;71935;-92
2023/04/22 13:55:19;;;;;;;9.10;4.00;;;;;;;22.57;21.06;100127.35;106626;1285;72743;-90
2023/04/22 13:57:51;;;;;;;6.60;3.50;;;;;;;22.53;20.90;100128.33;106888;1285;60130;-79
2023/04/22 14:00:19;;;;;;;6.10;3.80;;;;;;;22.47;21.37;100126.09;106953;1285;60289;-80
2023/04/22 14:02:50;;;;;;;;;;;;;;;22.40;20.99;100125.95;106980;1285;71431;-79
2023/04/22 14:05:23;;;;;;;6.70;3.70;;;;;;;22.29;21.05;100127.50;106967;1285;72351;-79
2023/04/22 14:07:54;;;;;;;6.70;3.80;;;;;;;22.22;21.87;100128.58;106958;1285;72880;-81
2023/04/22 14:11:10;;;;;;;6.00;3.80;;;;;;;22.21;22.02;100126.38;106417;1291;60452;-79
2023/04/22 14:13:44;;;;;;;6.00;3.60;;;;;;;22.33;21.92;100120.64;106684;1286;60337;-88
2023/04/22 14:16:11;;;;;;;21.90;2.00;;;;;;;22.54;21.94;100126.71;106655;1285;72990;-95
2023/04/22 14:18:39;;;;;;;5.30;3.50;;;;;;;22.71;21.55;100125.48;106164;1285;72615;-95
2023/04/22 14:21:08;;;;;;;6.20;3.50;;;;;;;22.96;21.82;100123.55;106528;1286;71445;-93
2023/04/22 14:23:38;;;;;;;5.30;3.60;;;;;;;23.28;21.18;100123.88;106688;1286;59385;-93
2023/04/22 14:26:09;;;;;;;5.90;3.70;;;;;;;23.63;21.07;100122.20;106010;1286;59633;-91
2023/04/22 14:28:36;;;;;;;5.90;3.70;;;;;;;24.19;21.22;100124.58;105687;1286;74215;-94
2023/04/22 14:31:06;;;;;;;5.20;3.80;;;;;;;24.89;21.08;100120.59;105217;1294;73034;-95
2023/04/22 14:33:34;;;;;;;4.30;3.00;;;;;;;25.59;20.27;100120.92;105203;1288;74082;-91
2023/04/22 14:36:03;;;;;;;5.50;3.70;;;;;;;26.14;19.27;100114.16;105130;1288;60223;-95
2023/04/22 14:38:32;;;;;;;4.20;3.30;;;;;;;26.72;18.50;100118.73;105206;1293;61698;-92
2023/04/22 14:41:04;;;;;;;5.30;3.50;;;;;;;27.08;17.24;100126.34;105275;1287;74340;-95
2023/04/22 14:43:33;;;;;;;6.60;3.30;;;;;;;27.10;17.02;100129.01;105705;1290;71291;-92
2023/04/22 14:46:00;;;;;;;6.00;3.60;;;;;;;27.06;17.26;100132.35;105593;1289;71562;-92
2023/04/22 14:48:31;;;;;;;5.20;3.40;;;;;;;27.10;17.12;100133.16;105629;1286;59576;-94
2023/04/22 14:50:58;;;;;;;4.80;3.60;;;;;;;27.14;16.85;100134.23;105563;1289;59503;-89
2023/04/22 14:53:27;;;;;;;6.00;3.40;;;;;;;27.20;17.21;100136.95;105360;1287;74029;-94
2023/04/22 14:55:55;;;;;;;4.90;3.10;;;;;;;27.30;17.22;100137.48;105165;1288;74105;-91
2023/04/22 14:58:22;;;;;;;5.20;3.30;;;;;;;27.50;16.87;100138.89;105660;1286;72647;-94
2023/04/22 15:00:54;;;;;;;7.60;3.50;;;;;;;27.75;17.18;100139.68;105182;1288;59525;-93
2023/04/22 15:03:21;;;;;;;7.20;3.70;;;;;;;28.03;16.97;100141.89;105216;1286;60252;-92
2023/04/22 15:05:49;;;;;;;5.20;3.70;;;;;;;28.36;16.68;100139.51;105741;1287;64290;-94
2023/04/22 15:08:15;;;;;;;5.70;3.80;;;;;;;28.51;16.64;100138.23;106488;1286;71794;-93
2023/04/22 15:10:44;;;;;;;5.10;3.80;;;;;;;28.56;16.74;100141.54;106490;1286;63849;-94
2023/04/22 15:13:14;;;;;;;5.60;3.70;;;;;;;28.69;16.51;100147.60;106545;1286;59478;-92
2023/04/22 15:15:41;;;;;;;5.50;3.60;;;;;;;28.90;16.60;100149.05;106371;1288;58056;-94
2023/04/22 15:18:09;;;;;;;4.90;3.70;;;;;;;28.81;16.65;100149.66;105585;1289;64227;-94
2023/04/22 15:20:36;;;;;;;5.00;3.60;;;;;;;28.25;16.66;100151.23;105745;1292;65094;-94
2023/04/22 15:23:03;;;;;;;4.60;3.40;;;;;;;27.90;17.02;100150.29;105764;1287;70645;-95
2023/04/22 15:25:30;;;;;;;5.00;3.70;;;;;;;28.07;17.03;100150.91;105647;1286;59689;-94
2023/04/22 15:27:58;;;;;;;4.70;3.50;;;;;;;28.31;16.79;100153.37;105801;1291;59542;-93
2023/04/22 15:30:26;;;;;;;4.90;3.60;;;;;;;28.66;16.65;100151.37;105506;1286;65521;-95
2023/04/22 15:32:53;;;;;;;5.00;3.70;;;;;;;28.82;16.64;100151.15;105205;1288;64242;-95
2023/04/22 15:35:22;;;;;;;4.90;3.20;;;;;;;28.82;16.49;100148.64;105180;1292;65232;-94
2023/04/22 15:37:49;;;;;;;5.70;3.60;;;;;;;28.64;16.53;100149.55;105424;1286;59682;-93
2023/04/22 15:40:17;;;;;;;5.20;3.50;;;;;;;28.59;16.33;100153.48;105478;1288;59882;-95
2023/04/22 15:42:44;;;;;;;5.10;3.00;;;;;;;28.69;16.52;100158.04;105153;1289;65305;-90
2023/04/22 15:45:11;;;;;;;4.90;3.50;;;;;;;28.62;16.45;100161.56;105164;1288;65490;-92
2023/04/22 15:47:40;;;;;;;5.10;3.60;;;;;;;28.42;16.64;100163.30;105413;1290;65020;-92
2023/04/22 15:50:09;;;;;;;5.10;3.60;;;;;;;28.46;16.38;100163.88;105464;1288;60399;-93
2023/04/22 15:52:37;;;;;;;5.40;3.30;;;;;;;28.58;16.43;100164.39;105449;1289;60396;-93
2023/04/22 15:55:05;;;;;;;4.80;3.10;;;;;;;28.71;16.47;100163.86;105503;1291;75194;-94
2023/04/22 15:57:33;;;;;;;;;;;;;;;28.83;16.35;100168.43;105445;1291;63867;-94
2023/04/22 16:00:05;;;;;;;5.60;3.80;;;;;;;29.01;16.06;100165.72;105535;1292;63885;-95
2023/04/22 16:02:43;;;;;;;5.30;3.50;;;;;;;29.00;15.79;100163.36;105271;1287;60377;-94
2023/04/22 16:05:11;;;;;;;5.90;4.00;;;;;;;29.04;16.13;100166.28;105199;1288;61904;-93
2023/04/22 16:07:39;;;;;;;5.70;3.20;;;;;;;28.83;15.85;100165.92;105138;1288;66390;-93
2023/04/22 16:10:07;;;;;;;4.90;3.60;;;;;;;28.42;16.00;100168.32;105114;1295;64501;-92
2023/04/22 16:12:35;;;;;;;4.80;3.30;;;;;;;28.08;16.38;100167.70;105194;1288;64096;-93
2023/04/22 16:15:03;;;;;;;4.80;3.20;;;;;;;27.87;16.67;100171.13;105068;1288;61381;-93
2023/04/22 16:17:30;;;;;;;5.90;3.40;;;;;;;27.66;16.48;100174.27;105103;1289;60266;-94
2023/04/22 16:19:58;;;;;;;5.90;3.60;;;;;;;27.27;16.91;100175.00;105109;1294;73853;-93
2023/04/22 16:22:25;;;;;;;4.70;3.60;;;;;;;26.74;17.05;100182.30;105059;1289;73691;-94
2023/04/22 16:24:52;;;;;;;5.70;3.90;;;;;;;26.16;18.01;100187.94;105118;1293;73677;-93
2023/04/22 16:27:19;;;;;;;5.00;3.30;;;;;;;25.83;18.94;100187.42;105060;1288;61772;-94
2023/04/22 16:29:47;;;;;;;4.90;3.40;;;;;;;25.80;19.90;100191.36;105093;1289;60443;-92
2023/04/22 16:32:14;;;;;;;5.90;3.70;;;;;;;25.85;19.81;100185.88;105091;1290;74963;-93
2023/04/22 16:34:41;;;;;;;3.80;2.90;;;;;;;25.92;19.87;100185.59;105049;1288;74183;-92
2023/04/22 16:37:09;;;;;;;;;;;;;;;26.03;19.39;100189.48;105345;1289;74113;-93
2023/04/22 16:39:36;;;;;;;;;;;;;;;26.00;18.83;100191.02;105198;1286;60754;-93
2023/04/22 16:42:05;;;;;;;7.80;3.90;;;;;;;25.79;18.79;100193.38;105190;1287;60501;-91
2023/04/22 16:44:32;;;;;;;4.50;3.10;;;;;;;25.44;19.08;100199.85;105076;1286;74852;-93
2023/04/22 16:46:59;;;;;;;6.10;3.90;;;;;;;24.95;19.26;100201.41;105185;1286;73911;-92
2023/04/22 16:49:26;;;;;;;5.30;3.50;;;;;;;24.37;19.57;100205.27;105275;1286;72895;-92
2023/04/22 16:51:53;;;;;;;6.00;4.20;;;;;;;23.84;19.91;100203.00;105277;1288;60420;-91
2023/04/22 16:54:20;;;;;;;7.70;4.40;;;;;;;23.40;20.29;100209.52;105440;1287;59592;-93
2023/04/22 16:56:47;;;;;;;11.50;5.00;;;;;;;23.06;20.89;100210.75;105400;1291;74144;-91
2023/04/22 16:59:14;;;;;;;9.50;6.80;;;;;;;22.74;21.10;100213.27;105420;1291;73429;-92
2023/04/22 17:01:42;;;;;;;10.50;8.00;;;;;;;22.41;21.29;100212.20;105386;1292;73991;-92
2023/04/22 17:04:10;;;;;;;10.90;7.90;;;;;;;22.11;21.71;100218.84;105396;1288;61432;-92
2023/04/22 17:06:37;;;;;;;11.20;7.50;;;;;;;21.88;22.04;100220.64;105129;1286;60397;-93